Time;durP1;ratioP1;P1;durP2;ratioP2;P2;SDS_P1;SDS_P2;PMS_P1;PMS_P2;Temp;Humidity;BMP_temperature;BMP_pressure;BME280_temperature;BME280_humidity;BME280_pressure;Samples;Min_cycle;Max_cycle;Signal;HPM_P1;HPM_P2
2022/12/17 13:08:19;;;;;;;51.58;26.95;;;;;;;;;;6245488;23;20004;-93
2022/12/17 13:10:46;;;;;;;53.05;27.33;;;;;;;;;;6250016;23;20082;-93
2022/12/17 13:13:19;;;;;;;50.72;27.50;;;;;;;;;;6248238;23;20028;-92
2022/12/17 13:16:18;;;;;;;55.55;29.95;;;;;;;;;;6249228;23;20012;-94
2022/12/17 13:18:45;;;;;;;52.78;27.85;;;;;;;;;;6252829;22;20008;-93
2022/12/17 13:32:08;;;;;;;57.03;29.20;;;;;;;;;;6231305;22;20350;-95
2022/12/17 13:34:53;;;;;;;48.72;26.63;;;;;;;;;;6222089;23;20000;-95
2022/12/17 13:37:31;;;;;;;52.80;28.10;;;;;;;;;;6224310;23;20011;-93
2022/12/17 13:40:26;;;;;;;;;;;;;;;;;;;;;
2022/12/17 13:43:01;;;;;;;48.42;25.67;;;;;;;;;;6256368;23;20028;-94
2022/12/17 13:45:32;;;;;;;49.40;26.65;;;;;;;;;;6220626;23;20005;-93
2022/12/17 13:47:59;;;;;;;51.10;26.75;;;;;;;;;;6222077;23;20096;-94
2022/12/17 13:50:29;;;;;;;49.90;25.20;;;;;;;;;;6221973;23;20008;-94
2022/12/17 13:53:11;;;;;;;53.88;26.80;;;;;;;;;;6219656;23;20015;-92
2022/12/17 13:55:38;;;;;;;50.10;25.48;;;;;;;;;;6221564;23;20008;-91
2022/12/17 14:01:21;;;;;;;47.65;23.83;;;;;;;;;;6197556;23;20004;-94
2022/12/17 14:04:12;;;;;;;55.33;26.27;;;;;;;;;;6235319;23;20004;-95
2022/12/17 14:06:38;;;;;;;48.80;24.83;;;;;;;;;;6233380;23;20012;-92
2022/12/17 14:09:14;;;;;;;50.65;24.77;;;;;;;;;;6235223;23;20090;-96
2022/12/17 14:14:36;;;;;;;46.13;23.77;;;;;;;;;;6263693;23;20068;-94
2022/12/17 14:23:12;;;;;;;47.47;23.13;;;;;;;;;;6253835;23;20011;-94
2022/12/17 14:25:39;;;;;;;85.32;47.13;;;;;;;;;;6223267;23;20008;-94
2022/12/17 14:28:26;;;;;;;64.97;35.38;;;;;;;;;;6224755;23;20388;-94
2022/12/17 14:31:02;;;;;;;48.97;24.70;;;;;;;;;;6223232;23;20039;-92
2022/12/17 14:55:08;;;;;;;47.28;23.60;;;;;;;;;;6191866;23;20498;-94
2022/12/17 14:58:12;;;;;;;47.97;22.00;;;;;;;;;;6153824;23;20009;-93
2022/12/17 15:00:46;;;;;;;42.22;20.30;;;;;;;;;;6191910;23;20004;-96
2022/12/17 15:03:28;;;;;;;46.85;20.35;;;;;;;;;;6197487;23;20013;-96
2022/12/17 15:06:12;;;;;;;42.38;20.33;;;;;;;;;;6199752;23;20032;-95
2022/12/17 15:09:16;;;;;;;50.28;21.70;;;;;;;;;;6200386;23;20350;-95
2022/12/17 15:11:42;;;;;;;41.80;19.25;;;;;;;;;;6115944;23;20013;-92
2022/12/17 15:14:08;;;;;;;43.10;19.23;;;;;;;;;;6127026;23;20001;-93
2022/12/17 15:21:47;;;;;;;41.63;20.00;;;;;;;;;;6251060;22;20115;-95
2022/12/17 15:24:20;;;;;;;42.90;21.63;;;;;;;;;;6255179;23;20020;-92
2022/12/17 15:26:52;;;;;;;42.22;21.20;;;;;;;;;;6252793;23;20048;-91
2022/12/17 15:29:27;;;;;;;38.72;19.60;;;;;;;;;;6250736;23;20099;-96
2022/12/17 15:31:54;;;;;;;35.45;18.10;;;;;;;;;;6247428;23;20091;-90
2022/12/17 15:34:22;;;;;;;39.78;19.55;;;;;;;;;;6250163;23;20026;-93
2022/12/17 15:36:49;;;;;;;41.80;20.20;;;;;;;;;;6221900;23;20027;-93
2022/12/17 15:39:15;;;;;;;38.05;18.35;;;;;;;;;;6247444;23;20004;-93
2022/12/17 15:44:26;;;;;;;36.08;17.23;;;;;;;;;;6251429;23;20086;-91
2022/12/17 15:46:52;;;;;;;39.15;17.88;;;;;;;;;;6254882;23;20020;-92
2022/12/17 15:49:18;;;;;;;38.10;18.85;;;;;;;;;;6229316;23;20440;-94
2022/12/17 15:51:45;;;;;;;37.45;17.65;;;;;;;;;;6252415;23;20035;-94
2022/12/17 15:54:26;;;;;;;35.83;17.85;;;;;;;;;;6252600;23;20022;-93
2022/12/17 16:27:55;;;;;;;40.78;19.08;;;;;;;;;;6256707;23;20020;-96
2022/12/17 16:30:21;;;;;;;38.65;18.02;;;;;;;;;;6233346;22;20008;-91
2022/12/17 16:43:23;;;;;;;35.38;17.00;;;;;;;;;;6263060;23;20003;-92
2022/12/17 16:45:58;;;;;;;33.08;16.42;;;;;;;;;;6261370;23;20004;-92
2022/12/17 16:48:44;;;;;;;36.22;18.05;;;;;;;;;;6224337;23;20028;-93
2022/12/17 16:51:25;;;;;;;34.38;17.67;;;;;;;;;;6228659;23;20015;-92
2022/12/17 16:53:55;;;;;;;38.38;18.77;;;;;;;;;;6225802;23;20012;-96
2022/12/17 16:56:38;;;;;;;35.83;18.17;;;;;;;;;;6228274;23;20012;-95
2022/12/17 17:09:40;;;;;;;37.22;18.23;;;;;;;;;;6253238;22;20016;-94
2022/12/17 17:12:08;;;;;;;38.33;19.20;;;;;;;;;;6230364;23;20012;-93
2022/12/17 17:14:43;;;;;;;45.35;21.40;;;;;;;;;;6224141;23;20428;-94
2022/12/17 17:17:09;;;;;;;39.85;19.67;;;;;;;;;;6252223;23;20091;-94
2022/12/17 17:19:36;;;;;;;39.63;19.42;;;;;;;;;;6225807;23;20489;-95
2022/12/17 17:22:05;;;;;;;36.90;18.90;;;;;;;;;;6225896;23;20003;-93
2022/12/17 17:24:31;;;;;;;41.28;20.63;;;;;;;;;;6225314;23;20028;-95
2022/12/17 17:49:13;;;;;;;61.63;29.27;;;;;;;;;;6249606;22;20024;-90
2022/12/17 17:51:41;;;;;;;61.88;30.58;;;;;;;;;;6249247;22;20019;-92
2022/12/17 17:54:07;;;;;;;44.17;22.17;;;;;;;;;;6249505;23;20008;-94
2022/12/17 17:56:35;;;;;;;42.20;20.90;;;;;;;;;;6250479;23;20087;-92
2022/12/17 17:59:08;;;;;;;47.17;23.10;;;;;;;;;;6249050;23;20088;-93
2022/12/17 18:01:34;;;;;;;;;;;;;;;;;;6247578;23;20138;-89
2022/12/17 18:04:04;;;;;;;45.92;21.27;;;;;;;;;;6246029;23;19934;-90
2022/12/17 18:06:31;;;;;;;40.25;18.92;;;;;;;;;;6246586;23;20004;-94
2022/12/17 18:08:58;;;;;;;45.90;22.55;;;;;;;;;;6246386;23;20011;-96
2022/12/17 18:11:26;;;;;;;51.58;25.63;;;;;;;;;;6247663;23;20087;-92
2022/12/17 18:13:56;;;;;;;54.10;25.08;;;;;;;;;;6247587;23;20011;-92
2022/12/17 18:16:25;;;;;;;42.38;21.35;;;;;;;;;;6248049;23;20087;-91
2022/12/17 18:18:53;;;;;;;48.25;23.02;;;;;;;;;;6247733;23;20058;-92
2022/12/17 18:21:21;;;;;;;47.85;22.08;;;;;;;;;;6248375;23;20009;-91
2022/12/17 18:23:50;;;;;;;48.55;23.13;;;;;;;;;;6249068;23;20067;-92
2022/12/17 18:36:41;;;;;;;51.08;24.88;;;;;;;;;;6272136;22;20020;-90
2022/12/17 18:39:12;;;;;;;62.25;28.83;;;;;;;;;;6257784;22;20034;-89
2022/12/17 18:44:24;;;;;;;43.53;22.98;;;;;;;;;;6289181;22;20439;-93
2022/12/17 18:46:50;;;;;;;48.05;24.52;;;;;;;;;;6268312;22;19995;-91
2022/12/17 18:49:40;;;;;;;53.47;26.20;;;;;;;;;;6275194;22;19999;-92
2022/12/17 18:52:06;;;;;;;48.25;23.10;;;;;;;;;;6260523;22;20038;-92
2022/12/17 18:54:33;;;;;;;51.80;25.13;;;;;;;;;;6260545;22;20032;-92
2022/12/17 18:57:00;;;;;;;50.17;25.13;;;;;;;;;;6254204;22;20004;-94
2022/12/17 18:59:27;;;;;;;49.03;24.23;;;;;;;;;;6253960;22;20008;-93
2022/12/17 19:01:55;;;;;;;55.95;25.38;;;;;;;;;;6253594;22;20008;-92
2022/12/17 19:04:22;;;;;;;50.63;24.67;;;;;;;;;;6252904;22;20010;-91
2022/12/17 19:06:52;;;;;;;83.80;30.75;;;;;;;;;;6253125;22;20011;-91
2022/12/17 19:09:23;;;;;;;74.65;27.92;;;;;;;;;;6248459;22;20053;-91
2022/12/17 19:11:49;;;;;;;79.05;35.60;;;;;;;;;;6249828;22;20011;-90
2022/12/17 19:14:22;;;;;;;86.22;36.75;;;;;;;;;;6250548;22;20020;-90
2022/12/17 19:16:49;;;;;;;73.28;34.95;;;;;;;;;;6252577;22;20003;-91
2022/12/17 19:19:15;;;;;;;53.75;25.05;;;;;;;;;;6251633;22;20008;-91
2022/12/17 19:21:42;;;;;;;49.70;23.88;;;;;;;;;;6252075;22;20042;-92
2022/12/17 19:24:12;;;;;;;50.03;23.10;;;;;;;;;;6251291;22;19999;-94
2022/12/17 19:26:38;;;;;;;56.78;26.23;;;;;;;;;;6251252;22;20425;-92
2022/12/17 19:29:07;;;;;;;53.58;26.27;;;;;;;;;;6252510;22;20007;-92
2022/12/17 19:31:34;;;;;;;74.28;33.00;;;;;;;;;;6253176;22;20012;-91
2022/12/17 19:34:02;;;;;;;58.25;28.73;;;;;;;;;;6250817;22;20012;-92
2022/12/17 19:36:29;;;;;;;59.00;27.20;;;;;;;;;;6246007;23;20020;-91
2022/12/17 19:38:57;;;;;;;58.03;26.05;;;;;;;;;;6247565;23;20007;-92
2022/12/17 19:41:23;;;;;;;61.85;28.50;;;;;;;;;;6246681;23;20001;-92
2022/12/17 19:44:06;;;;;;;58.45;28.98;;;;;;;;;;6244473;23;20004;-91
2022/12/17 19:46:47;;;;;;;53.50;26.45;;;;;;;;;;6253887;23;20062;-91
2022/12/17 19:49:22;;;;;;;59.65;26.80;;;;;;;;;;6253047;23;20027;-93
2022/12/17 19:56:59;;;;;;;53.30;26.08;;;;;;;;;;6296714;22;20019;-92
2022/12/17 19:59:25;;;;;;;54.17;24.70;;;;;;;;;;6295359;22;20007;-92
2022/12/17 20:04:38;;;;;;;52.95;25.13;;;;;;;;;;6264708;22;20020;-91
2022/12/17 20:07:07;;;;;;;51.22;24.50;;;;;;;;;;6241440;23;19996;-91
2022/12/17 20:12:59;;;;;;;49.80;24.40;;;;;;;;;;6202749;23;20030;-91
2022/12/17 20:15:25;;;;;;;54.63;24.25;;;;;;;;;;6163639;23;20045;-90
2022/12/17 20:17:51;;;;;;;48.42;23.15;;;;;;;;;;6160975;23;20044;-90
2022/12/17 20:20:18;;;;;;;47.22;22.02;;;;;;;;;;6161029;23;20055;-91
2022/12/17 20:22:44;;;;;;;46.55;22.80;;;;;;;;;;6162578;23;20001;-90
2022/12/17 20:25:29;;;;;;;46.90;23.50;;;;;;;;;;6170056;23;20460;-89
2022/12/17 20:36:40;;;;;;;55.85;25.67;;;;;;;;;;6243373;22;20086;-91
2022/12/17 20:39:07;;;;;;;47.65;22.92;;;;;;;;;;6246594;23;20401;-92
2022/12/17 20:41:36;;;;;;;52.55;24.50;;;;;;;;;;6249816;23;20048;-94
2022/12/17 20:44:07;;;;;;;46.70;22.67;;;;;;;;;;6255332;22;19992;-93
2022/12/17 20:49:18;;;;;;;48.13;24.33;;;;;;;;;;6230044;23;20096;-93
2022/12/17 20:51:51;;;;;;;46.25;22.75;;;;;;;;;;6196541;23;20032;-93
2022/12/17 20:56:48;;;;;;;47.35;23.00;;;;;;;;;;6283935;22;20019;-94
2022/12/17 20:59:16;;;;;;;46.10;22.48;;;;;;;;;;6254416;22;20321;-93
2022/12/17 21:01:49;;;;;;;48.13;23.17;;;;;;;;;;6258339;22;20011;-94
2022/12/17 21:06:45;;;;;;;47.08;23.15;;;;;;;;;;6249268;23;20074;-94
2022/12/17 21:09:13;;;;;;;51.35;24.25;;;;;;;;;;6247737;22;20023;-94
2022/12/17 21:11:39;;;;;;;47.15;22.70;;;;;;;;;;6248465;22;20038;-94
2022/12/17 21:16:39;;;;;;;45.08;23.23;;;;;;;;;;6250331;23;20016;-92
2022/12/17 21:19:06;;;;;;;51.15;23.88;;;;;;;;;;6221598;23;20091;-92
2022/12/17 21:21:34;;;;;;;45.70;22.80;;;;;;;;;;6221015;23;20008;-92
2022/12/17 21:24:00;;;;;;;49.92;24.20;;;;;;;;;;6222376;23;20008;-93
2022/12/17 21:26:31;;;;;;;54.88;25.10;;;;;;;;;;6222013;23;20012;-92
2022/12/17 21:29:00;;;;;;;48.05;23.17;;;;;;;;;;6221669;22;20023;-92
2022/12/17 21:34:11;;;;;;;48.65;24.17;;;;;;;;;;6250536;22;20030;-93
2022/12/17 21:39:12;;;;;;;49.88;24.63;;;;;;;;;;6246572;23;20517;-92
2022/12/17 21:41:40;;;;;;;53.97;23.40;;;;;;;;;;6250675;22;20469;-92
2022/12/17 21:44:11;;;;;;;54.13;24.67;;;;;;;;;;6249382;23;20008;-92
2022/12/17 21:46:37;;;;;;;51.55;24.42;;;;;;;;;;6233087;22;20319;-93
2022/12/17 21:49:04;;;;;;;51.05;24.95;;;;;;;;;;6226331;23;20011;-90
2022/12/17 21:51:30;;;;;;;55.55;27.50;;;;;;;;;;6221668;23;20083;-95
2022/12/17 21:53:58;;;;;;;52.28;26.10;;;;;;;;;;6221233;23;20448;-90
2022/12/17 21:56:39;;;;;;;56.25;26.35;;;;;;;;;;6225721;23;20043;-93
2022/12/17 22:01:44;;;;;;;51.70;22.27;;;;;;;;;;6255989;23;20135;-92
2022/12/17 22:06:43;;;;;;;48.45;22.73;;;;;;;;;;6247382;22;20492;-90
2022/12/17 22:09:09;;;;;;;54.78;27.05;;;;;;;;;;6220317;23;20050;-91
2022/12/17 22:11:36;;;;;;;58.60;27.10;;;;;;;;;;6221427;23;20012;-90
2022/12/17 22:14:08;;;;;;;59.55;27.90;;;;;;;;;;6219844;23;20012;-92
2022/12/17 22:16:42;;;;;;;57.67;27.02;;;;;;;;;;6222509;23;20054;-90
2022/12/17 22:19:18;;;;;;;56.33;27.08;;;;;;;;;;6242290;23;20055;-92
2022/12/17 22:21:48;;;;;;;56.13;27.05;;;;;;;;;;6226893;23;20032;-92
2022/12/17 22:24:16;;;;;;;64.57;29.10;;;;;;;;;;6246996;23;20126;-91
2022/12/17 22:26:42;;;;;;;57.88;25.73;;;;;;;;;;6219981;23;20000;-90
2022/12/17 22:29:08;;;;;;;59.03;28.80;;;;;;;;;;6220074;23;20004;-91
2022/12/17 22:34:38;;;;;;;61.85;28.30;;;;;;;;;;6257067;23;20074;-92
2022/12/17 22:37:04;;;;;;;57.65;26.70;;;;;;;;;;6252105;22;20087;-90
2022/12/17 22:57:58;;;;;;;48.40;24.73;;;;;;;;;;6251235;22;20063;-91
2022/12/17 23:00:27;;;;;;;55.03;24.83;;;;;;;;;;6251072;23;19984;-92
2022/12/17 23:02:53;;;;;;;57.17;27.10;;;;;;;;;;6248828;23;20387;-93
2022/12/17 23:05:23;;;;;;;58.15;26.60;;;;;;;;;;6254155;22;20008;-93
2022/12/17 23:07:50;;;;;;;55.47;26.67;;;;;;;;;;6249586;23;20000;-92
2022/12/17 23:13:20;;;;;;;59.97;27.98;;;;;;;;;;6259003;22;20011;-93
2022/12/17 23:18:50;;;;;;;62.25;27.23;;;;;;;;;;6258069;22;20030;-88
2022/12/17 23:21:26;;;;;;;57.58;25.45;;;;;;;;;;6256488;22;20092;-90
2022/12/17 23:23:53;;;;;;;57.58;25.77;;;;;;;;;;6254449;22;19999;-92
2022/12/17 23:26:23;;;;;;;71.00;30.55;;;;;;;;;;6253322;22;20015;-92
2022/12/17 23:31:22;;;;;;;57.50;26.60;;;;;;;;;;6251913;23;20020;-91
2022/12/17 23:36:21;;;;;;;69.82;30.77;;;;;;;;;;6246995;23;20030;-91
2022/12/17 23:38:48;;;;;;;62.03;27.45;;;;;;;;;;6219118;23;20014;-90
2022/12/17 23:41:18;;;;;;;72.93;31.90;;;;;;;;;;6219759;23;20004;-90
2022/12/17 23:43:46;;;;;;;71.07;30.30;;;;;;;;;;6229835;23;20015;-90
2022/12/17 23:46:13;;;;;;;81.55;36.75;;;;;;;;;;6221277;23;20000;-91
2022/12/17 23:48:46;;;;;;;68.25;31.40;;;;;;;;;;6224292;22;20027;-90
2022/12/17 23:51:13;;;;;;;68.00;31.40;;;;;;;;;;6225378;23;20399;-90
2022/12/17 23:53:40;;;;;;;57.03;26.83;;;;;;;;;;6222104;23;20322;-93
2022/12/17 23:56:07;;;;;;;64.53;30.30;;;;;;;;;;6219346;23;20422;-92
2022/12/17 23:58:34;;;;;;;61.15;27.40;;;;;;;;;;6219917;23;20004;-90
